Terminal Aerodrome Forecast
Issued by NWS

Home | Current Version | Previous Version | Text Only | Print | Product List | Glossary On
Versions: 1 2 3 4 5 6 7 8 9 10 11 12 13 14 15 16 17 18 19 20 21 22 23 24 25 26 27 28 29 30 31 32 33 34 35 36 37 38 39 40 41 42 43 44 45 46 47 48 49
000
FTUS45 KTWC 191500 AAA
TAFOLS
TAF AMD
KOLS 191519Z 1915/2012 VRB03KT P6SM VCFG FEW004
      TEMPO 1915/1916 1/2SM FG OVC001
     FM191700 VRB03KT P6SM SKC
     FM192000 02008KT P6SM FEW250
     FM200200 05003KT P6SM SCT250=

USA.gov is the U.S. government's official web portal to all federal, state and local government web resources and services.